• Join FlightAware (Why Join?)
  • Login
  • US Flag GB Flag 
04:08 EDT


 

Airport Tracker/Info


-or-


 

Live Flight TrackerFlight Track Log ✈ N9305N ✈ 28-Jan-2014 ✈ KORL - KORL

Flight Track Log - Related Links

Times and Time Zones

All times are in EST time to prevent confusion due to time zone crossing. See the N9305N flight status page for this flight to view local times or setup timezone preferences in your user account.

Time Position Orientation Groundspeed Altitude Reporting Facility
EST Latitude Longitude Course Direction KTS MPH feet Rate Location/Type
07:54 28.5500 -81.3333 221° Southwest 52 60 500  Level Orlando TRACON
07:55 28.5333 -81.3500 221° Southwest 65 75 1,300 660 Climbing Orlando TRACON
07:56 28.5333 -81.3667 270° West 66 76 2,000 300 Climbing Orlando TRACON
07:57 28.5167 -81.4000 240° Southwest 96 110 2,000  Level Orlando TRACON
07:58 28.5333 -81.4333 300° West 93 107 2,000  Level Orlando TRACON
07:59 28.5500 -81.4500 319° Northwest 91 105 2,000  Level Orlando TRACON
08:00 28.5667 -81.4833 300° West 91 105 2,000  Level Orlando TRACON
08:01 28.5833 -81.5000 319° Northwest 96 110 2,000 -60 Level Orlando TRACON
08:02 28.6000 -81.5167 319° Northwest 95 109 1,900 -120 Descending Orlando TRACON
08:03 28.6333 -81.5167 360° North 107 123 1,800 -240 Descending Orlando TRACON
08:04 28.6500 -81.5500 300° West 105 121 1,500 -240 Descending Orlando TRACON
08:05 28.6833 -81.5667 336° Northwest 112 129 1,300 240 Descending Orlando TRACON
08:06 28.6667 -81.5667 180° South 93 107 2,000 300 Climbing Orlando TRACON
08:07 28.6333 -81.5667 180° South 106 122 2,000  Level Orlando TRACON
08:08 28.6167 -81.5500 139° Southeast 105 121 2,000  Level Orlando TRACON
08:09 28.5833 -81.5500 180° South 100 115 2,000  Level Orlando TRACON
08:10 28.5667 -81.5500 180° South 102 117 2,000  Level Orlando TRACON
08:11 28.5333 -81.5333 156° South 117 135 2,000  Level Orlando TRACON
08:12 28.5667 -81.5000 41° Northeast 110 127 2,000  Level Orlando TRACON
08:13 28.5833 -81.5000 360° North 102 117 2,000  Level Orlando TRACON
08:14 28.6000 -81.5167 319° Northwest 95 109 2,000 -120 Level Orlando TRACON
08:15 28.6333 -81.5167 360° North 98 113 1,800 -300 Descending Orlando TRACON
08:16 28.6500 -81.5333 319° Northwest 91 105 1,400 -420 Descending Orlando TRACON
08:17 28.6667 -81.5500 319° Northwest 94 108 1,000 180 Descending Orlando TRACON
08:18 28.6833 -81.5500 360° North 95 109 1,800 480 Climbing Orlando TRACON
08:19 28.6833 -81.5167 90° East 114 131 2,000 60 Climbing Orlando TRACON
08:20 28.6833 -81.4833 90° East 104 120 2,000  Level Orlando TRACON
08:21 28.6667 -81.4500 120° Southeast 102 117 2,000  Level Orlando TRACON
08:22 28.6500 -81.4167 120° Southeast 104 120 2,000  Level Orlando TRACON
08:23 28.6500 -81.3833 90° East 103 119 2,000  Level Orlando TRACON
08:24 28.6500 -81.3500 90° East 105 121 2,000  Level Orlando TRACON
08:25 28.6500 -81.3167 90° East 124 143 2,000  Level Orlando TRACON
08:26 28.6500 -81.2667 90° East 133 153 2,000  Level Orlando TRACON
08:27 28.6667 -81.2333 60° Northeast 127 146 2,000 -120 Level Orlando TRACON
08:28 28.6667 -81.2000 90° East 128 147 1,800 -300 Descending Orlando TRACON
08:29 28.6500 -81.1667 120° Southeast 116 133 1,500 -180 Descending Orlando TRACON
08:30 28.6333 -81.1500 139° Southeast 105 121 1,500  Level Orlando TRACON
08:31 28.6000 -81.1667 204° Southwest 101 116 1,500  Level Orlando TRACON
08:32 28.6000 -81.2000 270° West 104 120 1,500 -60 Level Orlando TRACON
08:33 28.5833 -81.2333 240° Southwest 105 121 1,400 -240 Descending Orlando TRACON
08:34 28.5667 -81.2500 221° Southwest 117 135 1,100 -300 Descending Orlando TRACON
08:35 28.5667 -81.2833 270° West 85 98 900 -300 Descending Orlando TRACON
08:36 28.5500 -81.3000 221° Southwest 55 63 500 -420 Descending Orlando TRACON